Time,TemperatureF,DewpointF,PressureIn,WindDirection,WindDirectionDegrees,WindSpeedMPH,WindSpeedGustMPH,Humidity,HourlyPrecipIn,Conditions,Clouds,dailyrainin,SoftwareType,DateUTC
2013-08-23 00:01:00,79.2,75.6,30.03,East,80,3.0,13.0,89,0.00,,,0.00,meteohub,2013-08-23 04:01:00,
2013-08-23 00:02:00,79.2,75.6,30.03,ENE,78,9.0,13.0,89,0.00,,,0.00,meteohub,2013-08-23 04:02:00,
2013-08-23 00:05:00,79.2,75.6,30.03,ENE,74,8.0,11.0,89,0.00,,,0.00,meteohub,2013-08-23 04:05:00,
2013-08-23 00:07:00,79.0,75.4,30.03,ENE,76,3.0,11.0,89,0.00,,,0.00,meteohub,2013-08-23 04:07:00,
2013-08-23 00:12:00,79.2,75.6,30.03,East,81,3.0,11.0,89,0.00,,,0.00,meteohub,2013-08-23 04:12:00,
2013-08-23 00:17:00,79.2,75.6,30.03,ENE,71,4.0,11.0,89,0.00,,,0.00,meteohub,2013-08-23 04:17:00,
2013-08-23 00:22:00,79.0,75.4,30.03,ENE,76,2.0,11.0,89,0.00,,,0.00,meteohub,2013-08-23 04:22:00,
2013-08-23 00:27:00,79.2,75.6,30.03,ENE,76,2.0,10.0,89,0.00,,,0.00,meteohub,2013-08-23 04:27:00,
2013-08-23 00:32:00,79.2,75.6,30.03,ENE,77,2.0,9.0,89,0.00,,,0.00,meteohub,2013-08-23 04:32:00,
2013-08-23 00:38:00,79.2,75.6,30.03,East,83,7.0,9.0,89,0.00,,,0.00,meteohub,2013-08-23 04:38:00,
2013-08-23 00:43:00,79.0,75.4,30.03,ENE,77,4.0,9.0,89,0.00,,,0.00,meteohub,2013-08-23 04:43:00,
2013-08-23 00:48:00,79.2,75.6,30.03,ENE,74,1.0,10.0,89,0.00,,,0.00,meteohub,2013-08-23 04:48:00,
2013-08-23 00:53:00,79.2,75.6,30.02,ENE,74,1.0,10.0,89,0.00,,,0.00,meteohub,2013-08-23 04:53:00,
2013-08-23 00:58:00,79.0,75.4,30.02,ENE,74,0.0,9.0,89,0.00,,,0.00,meteohub,2013-08-23 04:58:00,
2013-08-23 01:03:00,79.0,75.4,30.02,ENE,74,2.0,8.0,89,0.00,,,0.00,meteohub,2013-08-23 05:03:00,
2013-08-23 01:08:00,78.6,75.0,30.02,ENE,72,5.0,8.0,89,0.00,,,0.00,meteohub,2013-08-23 05:08:00,
2013-08-23 01:13:00,78.8,75.2,30.02,ENE,72,1.0,9.0,89,0.00,,,0.00,meteohub,2013-08-23 05:13:00,
2013-08-23 01:18:00,78.6,75.0,30.02,ENE,72,0.0,9.0,89,0.00,,,0.00,meteohub,2013-08-23 05:18:00,
2013-08-23 01:24:00,78.4,74.8,30.01,ENE,72,1.0,9.0,89,0.00,,,0.00,meteohub,2013-08-23 05:24:00,
2013-08-23 01:29:00,78.3,74.7,30.01,ENE,72,0.0,5.0,89,0.00,,,0.00,meteohub,2013-08-23 05:29:00,
2013-08-23 01:34:00,78.3,75.0,30.01,ENE,72,2.0,5.0,90,0.00,,,0.00,meteohub,2013-08-23 05:34:00,
2013-08-23 01:39:00,78.1,74.8,30.01,ENE,72,0.0,5.0,90,0.00,,,0.00,meteohub,2013-08-23 05:39:00,
2013-08-23 01:44:00,78.1,74.8,30.01,ENE,72,1.0,5.0,90,0.00,,,0.00,meteohub,2013-08-23 05:44:00,
2013-08-23 01:49:00,78.1,74.8,30.01,ENE,72,0.0,5.0,90,0.00,,,0.00,meteohub,2013-08-23 05:49:00,
2013-08-23 01:54:00,77.7,74.5,30.01,ENE,72,0.0,5.0,90,0.00,,,0.00,meteohub,2013-08-23 05:54:00,
2013-08-23 01:59:00,77.7,74.5,30.01,ENE,72,0.0,7.0,90,0.00,,,0.00,meteohub,2013-08-23 05:59:00,
2013-08-23 02:04:00,77.5,74.3,30.01,ENE,72,0.0,7.0,90,0.00,,,0.00,meteohub,2013-08-23 06:04:00,
2013-08-23 02:10:00,77.5,74.3,30.00,ENE,72,0.0,5.0,90,0.00,,,0.00,meteohub,2013-08-23 06:10:00,
2013-08-23 02:15:00,77.7,74.5,30.00,ENE,72,2.0,5.0,90,0.00,,,0.00,meteohub,2013-08-23 06:15:00,
2013-08-23 02:20:00,77.5,74.7,29.99,ENE,72,0.0,4.0,91,0.00,,,0.00,meteohub,2013-08-23 06:20:00,
2013-08-23 02:25:00,77.7,74.8,29.99,ENE,72,2.0,4.0,91,0.00,,,0.00,meteohub,2013-08-23 06:25:00,
2013-08-23 02:30:00,77.7,74.8,29.99,ENE,72,0.0,7.0,91,0.00,,,0.00,meteohub,2013-08-23 06:30:00,
2013-08-23 02:36:00,77.7,74.8,29.99,ENE,72,1.0,8.0,91,0.00,,,0.00,meteohub,2013-08-23 06:36:00,
2013-08-23 02:41:00,77.7,74.8,29.99,ENE,72,0.0,8.0,91,0.00,,,0.00,meteohub,2013-08-23 06:41:00,
2013-08-23 02:46:00,77.7,74.8,29.99,ENE,72,0.0,8.0,91,0.00,,,0.00,meteohub,2013-08-23 06:46:00,
2013-08-23 02:51:00,77.9,75.0,29.99,ENE,72,1.0,5.0,91,0.00,,,0.00,meteohub,2013-08-23 06:51:00,
2013-08-23 02:56:00,77.9,75.0,29.99,ENE,72,1.0,3.0,91,0.00,,,0.00,meteohub,2013-08-23 06:56:00,
2013-08-23 03:01:00,77.9,75.0,29.99,ENE,72,0.0,4.0,91,0.00,,,0.00,meteohub,2013-08-23 07:01:00,
2013-08-23 03:06:00,77.7,74.8,29.99,ENE,72,0.0,5.0,91,0.00,,,0.00,meteohub,2013-08-23 07:06:00,
2013-08-23 03:11:00,77.7,74.8,29.99,ENE,72,0.0,5.0,91,0.00,,,0.00,meteohub,2013-08-23 07:11:00,
2013-08-23 03:16:00,77.5,74.7,29.99,ENE,72,0.0,5.0,91,0.00,,,0.00,meteohub,2013-08-23 07:16:00,
2013-08-23 03:21:00,77.5,74.7,29.99,ENE,72,1.0,5.0,91,0.00,,,0.00,meteohub,2013-08-23 07:21:00,
2013-08-23 03:27:00,77.5,74.7,29.99,ENE,72,0.0,2.0,91,0.00,,,0.00,meteohub,2013-08-23 07:27:00,
2013-08-23 03:32:00,77.5,74.7,29.99,ENE,72,0.0,3.0,91,0.00,,,0.00,meteohub,2013-08-23 07:32:00,
2013-08-23 03:37:00,77.5,74.7,29.99,ENE,72,0.0,3.0,91,0.00,,,0.00,meteohub,2013-08-23 07:37:00,
2013-08-23 03:42:00,77.5,74.7,29.99,ENE,72,0.0,4.0,91,0.00,,,0.00,meteohub,2013-08-23 07:42:00,
2013-08-23 03:47:00,77.5,74.7,29.98,ENE,72,0.0,4.0,91,0.00,,,0.00,meteohub,2013-08-23 07:47:00,
2013-08-23 03:52:00,77.7,74.8,29.98,ENE,72,1.0,4.0,91,0.00,,,0.00,meteohub,2013-08-23 07:52:00,
2013-08-23 03:57:00,77.7,75.2,29.98,ENE,72,0.0,4.0,92,0.00,,,0.00,meteohub,2013-08-23 07:57:00,
2013-08-23 04:02:00,77.7,74.8,29.98,ENE,72,0.0,4.0,91,0.00,,,0.00,meteohub,2013-08-23 08:02:00,
2013-08-23 04:07:00,77.7,75.2,29.98,ENE,72,1.0,5.0,92,0.00,,,0.00,meteohub,2013-08-23 08:07:00,
2013-08-23 04:12:00,77.7,75.2,29.98,ENE,72,0.0,5.0,92,0.00,,,0.00,meteohub,2013-08-23 08:12:00,
2013-08-23 04:17:00,77.7,75.2,29.98,ENE,72,0.0,5.0,92,0.00,,,0.00,meteohub,2013-08-23 08:17:00,
2013-08-23 04:22:00,78.1,75.6,29.98,ENE,72,0.0,4.0,92,0.00,,,0.00,meteohub,2013-08-23 08:22:00,
2013-08-23 04:27:00,77.9,75.4,29.98,ENE,72,0.0,4.0,92,0.00,,,0.00,meteohub,2013-08-23 08:27:00,
2013-08-23 04:32:00,77.9,75.4,29.97,ENE,72,2.0,4.0,92,0.00,,,0.00,meteohub,2013-08-23 08:32:00,
2013-08-23 04:37:00,77.9,75.4,29.98,ENE,72,0.0,3.0,92,0.00,,,0.00,meteohub,2013-08-23 08:37:00,
2013-08-23 04:42:00,77.9,75.4,29.97,ENE,72,0.0,3.0,92,0.00,,,0.00,meteohub,2013-08-23 08:42:00,
2013-08-23 04:47:00,77.9,75.0,29.97,ENE,72,0.0,3.0,91,0.00,,,0.00,meteohub,2013-08-23 08:47:00,
2013-08-23 04:52:00,77.9,75.4,29.97,ENE,72,0.0,5.0,92,0.00,,,0.00,meteohub,2013-08-23 08:52:00,
2013-08-23 04:57:00,77.9,75.4,29.97,ENE,72,0.0,5.0,92,0.00,,,0.00,meteohub,2013-08-23 08:57:00,
2013-08-23 05:02:00,78.1,75.6,29.97,ENE,72,3.0,3.0,92,0.00,,,0.00,meteohub,2013-08-23 09:02:00,
2013-08-23 05:07:00,78.1,75.6,29.97,ENE,72,0.0,5.0,92,0.00,,,0.00,meteohub,2013-08-23 09:07:00,
2013-08-23 05:12:00,78.1,75.6,29.97,ENE,72,0.0,5.0,92,0.00,,,0.00,meteohub,2013-08-23 09:12:00,
2013-08-23 05:17:00,78.3,75.7,29.97,ENE,72,0.0,5.0,92,0.00,,,0.00,meteohub,2013-08-23 09:17:00,
2013-08-23 05:22:00,78.3,75.7,29.97,ENE,72,0.0,4.0,92,0.00,,,0.00,meteohub,2013-08-23 09:22:00,
2013-08-23 05:27:00,78.3,75.7,29.97,ENE,72,0.0,4.0,92,0.00,,,0.00,meteohub,2013-08-23 09:27:00,
2013-08-23 05:32:00,78.4,75.9,29.97,ENE,72,1.0,4.0,92,0.00,,,0.00,meteohub,2013-08-23 09:32:00,
2013-08-23 05:37:00,78.4,75.6,29.97,ENE,72,0.0,5.0,91,0.00,,,0.00,meteohub,2013-08-23 09:37:00,
2013-08-23 05:42:00,78.4,75.6,29.97,ENE,72,0.0,5.0,91,0.00,,,0.00,meteohub,2013-08-23 09:42:00,
2013-08-23 05:47:00,78.4,75.6,29.97,ENE,72,0.0,5.0,91,0.00,,,0.00,meteohub,2013-08-23 09:47:00,
2013-08-23 05:52:00,78.4,75.6,29.97,ENE,72,0.0,4.0,91,0.00,,,0.00,meteohub,2013-08-23 09:52:00,
2013-08-23 05:57:00,78.4,75.6,29.97,ENE,72,0.0,4.0,91,0.00,,,0.00,meteohub,2013-08-23 09:57:00,
2013-08-23 06:02:00,78.4,75.6,29.97,ENE,72,1.0,4.0,91,0.00,,,0.00,meteohub,2013-08-23 10:02:00,
2013-08-23 06:07:00,78.3,75.4,29.97,ENE,72,0.0,4.0,91,0.00,,,0.00,meteohub,2013-08-23 10:07:00,
2013-08-23 06:12:00,78.3,75.4,29.97,ENE,72,1.0,4.0,91,0.00,,,0.00,meteohub,2013-08-23 10:12:00,
2013-08-23 06:17:00,78.3,75.4,29.97,ENE,72,3.0,4.0,91,0.00,,,0.00,meteohub,2013-08-23 10:17:00,
2013-08-23 06:22:00,78.4,75.9,29.98,ENE,72,2.0,8.0,92,0.00,,,0.00,meteohub,2013-08-23 10:22:00,
2013-08-23 06:27:00,78.6,75.7,29.98,ENE,72,0.0,8.0,91,0.00,,,0.00,meteohub,2013-08-23 10:27:00,
2013-08-23 06:32:00,78.6,75.7,29.98,ENE,72,2.0,8.0,91,0.00,,,0.00,meteohub,2013-08-23 10:32:00,
2013-08-23 06:37:00,78.4,75.6,29.98,ENE,72,0.0,5.0,91,0.00,,,0.00,meteohub,2013-08-23 10:37:00,
2013-08-23 06:42:00,78.4,75.6,29.98,ENE,72,0.0,5.0,91,0.00,,,0.00,meteohub,2013-08-23 10:42:00,
2013-08-23 06:47:00,78.4,75.6,29.98,ENE,72,2.0,5.0,91,0.00,,,0.00,meteohub,2013-08-23 10:47:00,
2013-08-23 06:52:00,78.4,75.6,29.99,ENE,72,0.0,3.0,91,0.00,,,0.00,meteohub,2013-08-23 10:52:00,
2013-08-23 06:57:00,78.4,75.6,29.99,ENE,72,0.0,3.0,91,0.00,,,0.00,meteohub,2013-08-23 10:57:00,
2013-08-23 07:02:00,78.4,75.6,29.99,ENE,72,0.0,4.0,91,0.00,,,0.00,meteohub,2013-08-23 11:02:00,
2013-08-23 07:07:00,78.3,75.4,29.99,ENE,72,0.0,5.0,91,0.00,,,0.00,meteohub,2013-08-23 11:07:00,
2013-08-23 07:12:00,78.4,75.6,29.99,ENE,72,0.0,5.0,91,0.00,,,0.00,meteohub,2013-08-23 11:12:00,
2013-08-23 07:17:00,78.3,75.4,29.99,ENE,72,2.0,7.0,91,0.00,,,0.00,meteohub,2013-08-23 11:17:00,
2013-08-23 07:22:00,78.4,75.6,29.99,ENE,72,2.0,8.0,91,0.00,,,0.00,meteohub,2013-08-23 11:22:00,
2013-08-23 07:27:00,78.4,75.9,29.99,ENE,72,0.0,8.0,92,0.00,,,0.00,meteohub,2013-08-23 11:27:00,
2013-08-23 07:32:00,78.4,75.9,29.99,ENE,71,1.0,7.0,92,0.00,,,0.00,meteohub,2013-08-23 11:32:00,
2013-08-23 07:37:00,78.4,75.9,29.98,ENE,72,0.0,7.0,92,0.00,,,0.00,meteohub,2013-08-23 11:37:00,
2013-08-23 07:42:00,78.4,75.6,29.99,ENE,72,0.0,7.0,91,0.00,,,0.00,meteohub,2013-08-23 11:42:00,
2013-08-23 07:47:00,78.4,75.6,29.99,ENE,72,0.0,5.0,91,0.00,,,0.00,meteohub,2013-08-23 11:47:00,
2013-08-23 07:52:00,78.8,76.3,29.99,ENE,72,0.0,5.0,92,0.00,,,0.00,meteohub,2013-08-23 11:52:00,
2013-08-23 07:57:00,79.0,76.1,29.99,ENE,72,0.0,3.0,91,0.00,,,0.00,meteohub,2013-08-23 11:57:00,
2013-08-23 08:02:00,79.2,76.3,29.99,ENE,72,1.0,5.0,91,0.00,,,0.00,meteohub,2013-08-23 12:02:00,
2013-08-23 08:14:00,79.3,76.5,29.99,ENE,71,1.0,5.0,91,0.00,,,0.00,meteohub,2013-08-23 12:14:00,
2013-08-23 08:19:00,79.5,76.6,30.00,ENE,74,3.0,5.0,91,0.00,,,0.00,meteohub,2013-08-23 12:19:00,
2013-08-23 08:24:00,79.9,77.0,29.99,ENE,75,3.0,8.0,91,0.00,,,0.00,meteohub,2013-08-23 12:24:00,
2013-08-23 08:29:00,79.9,76.6,30.00,ENE,78,3.0,8.0,90,0.00,,,0.00,meteohub,2013-08-23 12:29:00,
2013-08-23 08:34:00,80.1,76.8,30.00,ENE,77,0.0,8.0,90,0.00,,,0.00,meteohub,2013-08-23 12:34:00,
2013-08-23 08:39:00,80.2,77.0,30.00,ENE,76,1.0,7.0,90,0.00,,,0.00,meteohub,2013-08-23 12:39:00,
2013-08-23 08:44:00,80.2,77.0,30.00,ENE,76,1.0,7.0,90,0.00,,,0.00,meteohub,2013-08-23 12:44:00,
2013-08-23 08:49:00,80.4,77.2,30.00,ENE,76,0.0,7.0,90,0.00,,,0.00,meteohub,2013-08-23 12:49:00,
2013-08-23 08:54:00,80.4,77.2,30.00,ENE,76,0.0,5.0,90,0.00,,,0.00,meteohub,2013-08-23 12:54:00,
2013-08-23 09:00:00,80.4,77.2,30.00,ENE,76,0.0,4.0,90,0.00,,,0.00,meteohub,2013-08-23 13:00:00,
2013-08-23 09:05:00,80.8,77.5,30.00,ENE,76,0.0,5.0,90,0.00,,,0.00,meteohub,2013-08-23 13:05:00,
2013-08-23 09:10:00,80.8,77.2,30.00,ENE,76,3.0,5.0,89,0.00,,,0.00,meteohub,2013-08-23 13:10:00,
2013-08-23 09:15:00,81.1,77.5,30.00,ENE,76,0.0,3.0,89,0.00,,,0.00,meteohub,2013-08-23 13:15:00,
2013-08-23 09:20:00,81.7,78.1,30.00,ENE,76,3.0,4.0,89,0.00,,,0.00,meteohub,2013-08-23 13:20:00,
2013-08-23 09:25:00,81.9,77.9,30.01,ENE,73,1.0,8.0,88,0.00,,,0.00,meteohub,2013-08-23 13:25:00,
2013-08-23 09:30:00,82.0,78.1,30.01,ENE,73,0.0,8.0,88,0.00,,,0.00,meteohub,2013-08-23 13:30:00,
2013-08-23 09:35:00,82.2,78.3,30.01,ENE,73,0.0,8.0,88,0.00,,,0.00,meteohub,2013-08-23 13:35:00,
2013-08-23 09:40:00,82.2,77.9,30.01,ENE,73,0.0,4.0,87,0.00,,,0.00,meteohub,2013-08-23 13:40:00,
2013-08-23 09:45:00,82.2,77.5,30.01,ENE,73,1.0,5.0,86,0.00,,,0.00,meteohub,2013-08-23 13:45:00,
2013-08-23 09:50:00,82.6,77.9,30.01,ENE,75,0.0,7.0,86,0.00,,,0.00,meteohub,2013-08-23 13:50:00,
2013-08-23 09:55:00,82.6,77.9,30.01,ENE,74,0.0,7.0,86,0.00,,,0.00,meteohub,2013-08-23 13:55:00,
2013-08-23 10:01:00,82.8,77.7,30.01,ENE,73,2.0,7.0,85,0.00,,,0.00,meteohub,2013-08-23 14:01:00,
2013-08-23 10:06:00,83.1,78.1,30.02,ENE,73,1.0,7.0,85,0.00,,,0.00,meteohub,2013-08-23 14:06:00,
2013-08-23 10:11:00,83.8,78.4,30.02,ENE,73,0.0,7.0,84,0.00,,,0.00,meteohub,2013-08-23 14:11:00,
2013-08-23 10:16:00,84.6,78.4,30.02,ENE,73,0.0,7.0,82,0.00,,,0.00,meteohub,2013-08-23 14:16:00,
2013-08-23 10:21:00,84.9,78.4,30.02,ENE,69,1.0,5.0,81,0.00,,,0.00,meteohub,2013-08-23 14:21:00,
2013-08-23 10:26:00,85.3,78.4,30.03,ENE,69,0.0,7.0,80,0.00,,,0.00,meteohub,2013-08-23 14:26:00,
2013-08-23 10:31:00,85.3,78.4,30.03,ENE,69,4.0,7.0,80,0.00,,,0.00,meteohub,2013-08-23 14:31:00,
2013-08-23 10:36:00,84.6,77.7,30.03,ENE,73,0.0,7.0,80,0.00,,,0.00,meteohub,2013-08-23 14:36:00,
2013-08-23 10:41:00,84.4,77.5,30.03,East,82,1.0,7.0,80,0.00,,,0.00,meteohub,2013-08-23 14:41:00,
2013-08-23 10:47:00,84.0,77.2,30.03,East,82,3.0,8.0,80,0.00,,,0.00,meteohub,2013-08-23 14:47:00,
2013-08-23 10:52:00,84.0,77.5,30.03,East,82,2.0,8.0,81,0.00,,,0.00,meteohub,2013-08-23 14:52:00,
2013-08-23 10:57:00,83.8,77.0,30.03,East,82,5.0,8.0,80,0.00,,,0.00,meteohub,2013-08-23 14:57:00,
2013-08-23 11:02:00,84.0,77.2,30.03,East,82,1.0,6.0,80,0.00,,,0.00,meteohub,2013-08-23 15:02:00,
2013-08-23 11:07:00,84.0,77.2,30.03,East,81,5.0,6.0,80,0.00,,,0.00,meteohub,2013-08-23 15:07:00,
2013-08-23 11:12:00,84.4,77.5,30.03,East,82,1.0,8.0,80,0.00,,,0.00,meteohub,2013-08-23 15:12:00,
2013-08-23 11:17:00,84.6,77.7,30.03,East,82,0.0,8.0,80,0.00,,,0.00,meteohub,2013-08-23 15:17:00,
2013-08-23 11:22:00,85.3,78.1,30.03,East,82,5.0,8.0,79,0.00,,,0.00,meteohub,2013-08-23 15:22:00,
2013-08-23 11:27:00,86.0,78.3,30.03,East,84,5.0,8.0,78,0.00,,,0.00,meteohub,2013-08-23 15:27:00,
2013-08-23 11:32:00,86.7,78.6,30.03,East,84,0.0,10.0,77,0.00,,,0.00,meteohub,2013-08-23 15:32:00,
2013-08-23 11:37:00,87.4,78.6,30.02,East,84,6.0,10.0,75,0.00,,,0.00,meteohub,2013-08-23 15:37:00,
2013-08-23 11:42:00,87.8,78.4,30.02,East,85,5.0,7.0,74,0.00,,,0.00,meteohub,2013-08-23 15:42:00,
2013-08-23 11:47:00,88.2,78.8,30.02,East,86,6.0,8.0,74,0.00,,,0.00,meteohub,2013-08-23 15:47:00,
2013-08-23 11:52:00,88.5,79.2,30.02,East,86,0.0,8.0,74,0.00,,,0.00,meteohub,2013-08-23 15:52:00,
2013-08-23 11:57:00,89.2,79.5,30.02,East,86,1.0,8.0,73,0.00,,,0.00,meteohub,2013-08-23 15:57:00,
2013-08-23 12:02:00,89.6,79.0,30.02,East,86,3.0,7.0,71,0.00,,,0.00,meteohub,2013-08-23 16:02:00,
2013-08-23 12:07:00,90.0,79.3,30.02,East,86,0.0,6.0,71,0.00,,,0.00,meteohub,2013-08-23 16:07:00,
2013-08-23 12:12:00,90.3,79.2,30.02,East,81,0.0,5.0,70,0.00,,,0.00,meteohub,2013-08-23 16:12:00,
2013-08-23 12:17:00,90.3,79.2,30.02,East,81,0.0,5.0,70,0.00,,,0.00,meteohub,2013-08-23 16:17:00,
2013-08-23 12:22:00,90.9,78.8,30.02,East,81,0.0,6.0,68,0.00,,,0.00,meteohub,2013-08-23 16:22:00,
2013-08-23 12:27:00,91.0,79.0,30.02,East,81,0.0,6.0,68,0.00,,,0.00,meteohub,2013-08-23 16:27:00,
2013-08-23 12:32:00,91.4,79.3,30.02,East,81,0.0,6.0,68,0.00,,,0.00,meteohub,2013-08-23 16:32:00,
2013-08-23 12:37:00,91.8,79.2,30.02,East,81,1.0,6.0,67,0.00,,,0.00,meteohub,2013-08-23 16:37:00,
2013-08-23 12:42:00,91.9,79.0,30.02,East,81,0.0,5.0,66,0.00,,,0.00,meteohub,2013-08-23 16:42:00,
2013-08-23 12:47:00,91.8,79.2,30.02,East,81,0.0,3.0,67,0.00,,,0.00,meteohub,2013-08-23 16:47:00,
2013-08-23 12:52:00,92.1,79.2,30.01,East,81,0.0,3.0,66,0.00,,,0.00,meteohub,2013-08-23 16:52:00,
2013-08-23 12:57:00,92.5,79.5,30.02,East,81,1.0,3.0,66,0.00,,,0.00,meteohub,2013-08-23 16:57:00,
2013-08-23 13:03:00,92.8,79.3,30.01,East,81,0.0,6.0,65,0.00,,,0.00,meteohub,2013-08-23 17:03:00,
2013-08-23 13:08:00,93.0,79.0,30.01,East,81,3.0,6.0,64,0.00,,,0.00,meteohub,2013-08-23 17:08:00,
2013-08-23 13:13:00,93.0,79.0,30.01,East,81,1.0,6.0,64,0.00,,,0.00,meteohub,2013-08-23 17:13:00,
2013-08-23 13:18:00,93.6,79.5,30.01,East,81,0.0,6.0,64,0.00,,,0.00,meteohub,2013-08-23 17:18:00,
2013-08-23 13:23:00,93.7,79.2,30.01,East,81,5.0,6.0,63,0.00,,,0.00,meteohub,2013-08-23 17:23:00,
2013-08-23 13:28:00,93.4,79.3,30.01,East,81,0.0,6.0,64,0.00,,,0.00,meteohub,2013-08-23 17:28:00,
2013-08-23 13:33:00,93.7,79.7,30.01,East,81,0.0,6.0,64,0.00,,,0.00,meteohub,2013-08-23 17:33:00,
2013-08-23 13:38:00,93.9,79.3,30.01,East,81,0.0,5.0,63,0.00,,,0.00,meteohub,2013-08-23 17:38:00,
2013-08-23 13:43:00,94.5,79.3,30.01,East,81,0.0,3.0,62,0.00,,,0.00,meteohub,2013-08-23 17:43:00,
2013-08-23 13:49:00,94.8,79.3,30.01,East,81,0.0,5.0,61,0.00,,,0.00,meteohub,2013-08-23 17:49:00,
2013-08-23 13:54:00,95.0,79.0,30.00,East,81,7.0,7.0,60,0.00,,,0.00,meteohub,2013-08-23 17:54:00,
2013-08-23 13:59:00,94.6,78.6,30.01,East,81,1.0,6.0,60,0.00,,,0.00,meteohub,2013-08-23 17:59:00,
2013-08-23 14:04:00,94.3,76.6,30.00,East,81,0.0,7.0,57,0.00,,,0.00,meteohub,2013-08-23 18:04:00,
2013-08-23 14:09:00,94.1,77.5,30.00,East,81,0.0,7.0,59,0.00,,,0.00,meteohub,2013-08-23 18:09:00,
2013-08-23 14:15:00,94.3,75.6,30.00,East,81,0.0,6.0,55,0.00,,,0.00,meteohub,2013-08-23 18:15:00,
2013-08-23 14:20:00,94.8,77.2,29.99,East,81,0.0,6.0,57,0.00,,,0.00,meteohub,2013-08-23 18:20:00,
2013-08-23 14:25:00,95.4,76.6,29.99,East,81,0.0,5.0,55,0.00,,,0.00,meteohub,2013-08-23 18:25:00,
2013-08-23 14:30:00,95.7,75.2,29.99,East,81,0.0,5.0,52,0.00,,,0.00,meteohub,2013-08-23 18:30:00,
2013-08-23 14:35:00,96.4,77.0,29.99,East,81,0.0,5.0,54,0.00,,,0.00,meteohub,2013-08-23 18:35:00,
2013-08-23 14:40:00,96.3,74.7,29.99,East,81,2.0,5.0,50,0.00,,,0.00,meteohub,2013-08-23 18:40:00,
2013-08-23 14:45:00,95.7,75.2,29.98,East,81,0.0,5.0,52,0.00,,,0.00,meteohub,2013-08-23 18:45:00,
2013-08-23 14:50:00,96.1,75.6,29.98,East,81,1.0,5.0,52,0.00,,,0.00,meteohub,2013-08-23 18:50:00,
2013-08-23 14:56:00,96.3,75.2,29.98,East,81,0.0,5.0,51,0.00,,,0.00,meteohub,2013-08-23 18:56:00,
2013-08-23 15:01:00,95.4,74.3,29.99,East,81,0.0,3.0,51,0.00,,,0.00,meteohub,2013-08-23 19:01:00,
2013-08-23 15:06:00,93.6,77.0,29.98,East,87,2.0,7.0,59,0.00,,,0.00,meteohub,2013-08-23 19:06:00,
2013-08-23 15:11:00,92.7,77.7,29.98,East,87,0.0,7.0,62,0.00,,,0.00,meteohub,2013-08-23 19:11:00,
2013-08-23 15:16:00,92.1,77.2,29.98,ENE,59,2.0,7.0,62,0.00,,,0.00,meteohub,2013-08-23 19:16:00,
2013-08-23 15:21:00,91.4,76.5,29.97,WNW,302,3.0,7.0,62,0.00,,,0.00,meteohub,2013-08-23 19:21:00,
2013-08-23 15:26:00,91.9,77.0,29.97,WNW,302,3.0,7.0,62,0.00,,,0.00,meteohub,2013-08-23 19:26:00,
2013-08-23 15:31:00,91.9,77.0,29.97,WNW,302,6.0,7.0,62,0.00,,,0.00,meteohub,2013-08-23 19:31:00,
2013-08-23 15:36:00,91.6,77.2,29.98,WNW,302,2.0,6.0,63,0.00,,,0.00,meteohub,2013-08-23 19:36:00,
2013-08-23 15:41:00,92.7,77.2,29.98,WNW,302,0.0,6.0,61,0.00,,,0.00,meteohub,2013-08-23 19:41:00,
2013-08-23 15:46:00,93.6,77.5,29.97,WNW,302,2.0,6.0,60,0.00,,,0.00,meteohub,2013-08-23 19:46:00,
2013-08-23 15:51:00,94.3,77.7,29.97,NW,311,0.0,6.0,59,0.00,,,0.00,meteohub,2013-08-23 19:51:00,
2013-08-23 15:57:00,94.5,76.8,29.97,NW,311,0.0,6.0,57,0.00,,,0.00,meteohub,2013-08-23 19:57:00,
2013-08-23 16:02:00,94.6,77.0,29.97,NW,311,2.0,6.0,57,0.00,,,0.00,meteohub,2013-08-23 20:02:00,
2013-08-23 16:07:00,93.6,75.0,29.97,NW,311,0.0,4.0,55,0.00,,,0.00,meteohub,2013-08-23 20:07:00,
2013-08-23 16:12:00,91.2,74.3,29.97,WNW,303,4.0,7.0,58,0.00,,,0.00,meteohub,2013-08-23 20:12:00,
2013-08-23 16:17:00,90.0,74.1,29.97,WNW,295,2.0,8.0,60,0.00,,,0.00,meteohub,2013-08-23 20:17:00,
2013-08-23 16:22:00,90.0,74.7,29.97,WNW,295,0.0,8.0,61,0.00,,,0.00,meteohub,2013-08-23 20:22:00,
2013-08-23 16:27:00,90.1,73.9,29.97,WNW,295,1.0,8.0,59,0.00,,,0.00,meteohub,2013-08-23 20:27:00,
2013-08-23 16:32:00,89.8,75.6,29.97,NW,305,2.0,6.0,63,0.00,,,0.00,meteohub,2013-08-23 20:32:00,
2013-08-23 16:37:00,89.1,75.7,29.97,NW,305,2.0,7.0,65,0.00,,,0.00,meteohub,2013-08-23 20:37:00,
2013-08-23 16:42:00,88.5,75.7,29.97,NW,313,3.0,8.0,66,0.00,,,0.00,meteohub,2013-08-23 20:42:00,
2013-08-23 16:47:00,88.3,75.6,29.97,NW,304,6.0,8.0,66,0.00,,,0.00,meteohub,2013-08-23 20:47:00,
2013-08-23 16:52:00,88.2,75.7,29.97,NW,320,4.0,8.0,67,0.00,,,0.00,meteohub,2013-08-23 20:52:00,
2013-08-23 16:57:00,88.0,75.6,29.98,NW,319,1.0,11.0,67,0.00,,,0.00,meteohub,2013-08-23 20:57:00,
2013-08-23 17:02:00,88.2,76.6,29.98,NW,319,0.0,11.0,69,0.00,,,0.00,meteohub,2013-08-23 21:02:00,
2013-08-23 17:07:00,87.8,76.8,29.99,NNW,339,1.0,6.0,70,0.00,,,0.00,meteohub,2013-08-23 21:07:00,
2013-08-23 17:12:00,86.7,77.0,29.99,NE,36,1.0,6.0,73,0.00,,,0.00,meteohub,2013-08-23 21:12:00,
2013-08-23 17:17:00,85.3,76.1,29.99,NE,41,3.0,5.0,74,0.00,,,0.00,meteohub,2013-08-23 21:17:00,
2013-08-23 17:22:00,83.7,75.7,29.99,East,93,10.0,10.0,77,0.00,,,0.00,meteohub,2013-08-23 21:22:00,
2013-08-23 17:27:00,82.2,75.0,29.99,East,94,0.0,15.0,79,0.00,,,0.00,meteohub,2013-08-23 21:27:00,
2013-08-23 17:32:00,81.1,74.7,29.99,SSE,160,7.0,15.0,81,0.00,,,0.00,meteohub,2013-08-23 21:32:00,
2013-08-23 17:38:00,81.1,75.2,29.98,South,171,5.0,11.0,82,0.00,,,0.00,meteohub,2013-08-23 21:38:00,
2013-08-23 17:43:00,81.1,75.2,29.98,South,170,0.0,10.0,82,0.00,,,0.00,meteohub,2013-08-23 21:43:00,
2013-08-23 17:48:00,81.5,75.4,29.98,South,173,2.0,10.0,82,0.00,,,0.00,meteohub,2013-08-23 21:48:00,
2013-08-23 17:53:00,81.9,75.7,29.98,South,173,0.0,8.0,82,0.00,,,0.00,meteohub,2013-08-23 21:53:00,
2013-08-23 17:58:00,82.2,76.1,29.98,South,173,0.0,8.0,82,0.00,,,0.00,meteohub,2013-08-23 21:58:00,
2013-08-23 18:03:00,82.8,76.6,29.97,South,173,0.0,6.0,82,0.00,,,0.00,meteohub,2013-08-23 22:03:00,
2013-08-23 18:08:00,83.1,77.0,29.98,South,173,0.0,3.0,82,0.00,,,0.00,meteohub,2013-08-23 22:08:00,
2013-08-23 18:13:00,83.7,77.5,29.98,South,173,0.0,0.0,82,0.00,,,0.00,meteohub,2013-08-23 22:13:00,
2013-08-23 18:18:00,83.8,77.4,29.98,South,173,0.0,0.0,81,0.00,,,0.00,meteohub,2013-08-23 22:18:00,
2013-08-23 18:23:00,83.8,77.0,29.99,South,173,0.0,1.0,80,0.00,,,0.00,meteohub,2013-08-23 22:23:00,
2013-08-23 18:28:00,83.8,76.6,29.99,West,277,5.0,5.0,79,0.00,,,0.00,meteohub,2013-08-23 22:28:00,
2013-08-23 18:33:00,83.7,76.5,29.99,NW,317,0.0,6.0,79,0.00,,,0.00,meteohub,2013-08-23 22:33:00,
2013-08-23 18:38:00,83.7,76.5,29.99,NW,326,1.0,6.0,79,0.00,,,0.00,meteohub,2013-08-23 22:38:00,
2013-08-23 18:44:00,83.5,76.3,29.99,North,5,0.0,6.0,79,0.00,,,0.00,meteohub,2013-08-23 22:44:00,
2013-08-23 18:49:00,83.5,76.3,29.99,NNW,344,2.0,8.0,79,0.00,,,0.00,meteohub,2013-08-23 22:49:00,
2013-08-23 18:54:00,82.9,75.7,29.99,NE,34,1.0,8.0,79,0.00,,,0.00,meteohub,2013-08-23 22:54:00,
2013-08-23 18:59:00,82.2,74.3,29.99,NNE,29,0.0,10.0,77,0.00,,,0.00,meteohub,2013-08-23 22:59:00,
2013-08-23 19:04:00,81.9,73.9,30.00,NNE,28,2.0,10.0,77,0.00,,,0.00,meteohub,2013-08-23 23:04:00,
2013-08-23 19:09:00,81.3,73.4,30.00,ENE,57,3.0,10.0,77,0.00,,,0.00,meteohub,2013-08-23 23:09:00,
2013-08-23 19:14:00,80.8,72.9,29.99,NNE,24,5.0,10.0,77,0.00,,,0.00,meteohub,2013-08-23 23:14:00,
2013-08-23 19:19:00,80.2,72.7,30.00,ENE,59,5.0,10.0,78,0.00,,,0.00,meteohub,2013-08-23 23:19:00,
2013-08-23 19:25:00,80.1,73.0,30.00,NNE,32,4.0,11.0,79,0.00,,,0.00,meteohub,2013-08-23 23:25:00,
2013-08-23 19:30:00,79.9,72.9,30.00,NE,56,3.0,13.0,79,0.00,,,0.00,meteohub,2013-08-23 23:30:00,
2013-08-23 19:35:00,79.7,73.0,30.00,NNE,30,2.0,13.0,80,0.00,,,0.00,meteohub,2013-08-23 23:35:00,
2013-08-23 19:40:00,79.5,72.9,30.00,NE,53,0.0,13.0,80,0.00,,,0.00,meteohub,2013-08-23 23:40:00,
2013-08-23 19:45:00,79.3,73.0,30.00,NE,49,5.0,13.0,81,0.00,,,0.00,meteohub,2013-08-23 23:45:00,
2013-08-23 19:50:00,79.2,72.9,30.00,NE,49,1.0,14.0,81,0.00,,,0.00,meteohub,2013-08-23 23:50:00,
2013-08-23 19:55:00,79.2,72.9,30.00,NE,49,9.0,14.0,81,0.00,,,0.00,meteohub,2013-08-23 23:55:00,
2013-08-23 20:00:00,79.0,72.7,30.00,NE,46,0.0,14.0,81,0.00,,,0.00,meteohub,2013-08-24 00:00:00,
2013-08-23 20:05:00,79.0,72.7,30.00,NE,54,5.0,9.0,81,0.00,,,0.00,meteohub,2013-08-24 00:05:00,
2013-08-23 20:10:00,79.0,72.3,30.00,NE,54,3.0,12.0,80,0.00,,,0.00,meteohub,2013-08-24 00:10:00,
2013-08-23 20:15:00,79.2,72.5,30.00,ENE,58,4.0,13.0,80,0.00,,,0.00,meteohub,2013-08-24 00:15:00,
2013-08-23 20:21:00,79.2,72.1,30.00,NE,53,2.0,13.0,79,0.00,,,0.00,meteohub,2013-08-24 00:21:00,
2013-08-23 20:26:00,79.2,72.1,30.00,NE,55,0.0,13.0,79,0.00,,,0.00,meteohub,2013-08-24 00:26:00,
2013-08-23 20:31:00,79.2,72.1,30.00,ENE,71,2.0,12.0,79,0.00,,,0.00,meteohub,2013-08-24 00:31:00,
2013-08-23 20:36:00,79.2,72.5,30.01,ENE,64,5.0,12.0,80,0.00,,,0.00,meteohub,2013-08-24 00:36:00,
2013-08-23 20:41:00,79.2,72.5,30.01,ENE,63,0.0,12.0,80,0.00,,,0.00,meteohub,2013-08-24 00:41:00,
2013-08-23 20:46:00,79.2,72.5,30.01,ENE,68,1.0,12.0,80,0.00,,,0.00,meteohub,2013-08-24 00:46:00,
2013-08-23 20:51:00,79.2,72.5,30.01,ENE,67,0.0,9.0,80,0.00,,,0.00,meteohub,2013-08-24 00:51:00,
2013-08-23 20:56:00,79.2,72.9,30.01,ENE,74,1.0,9.0,81,0.00,,,0.00,meteohub,2013-08-24 00:56:00,
2013-08-23 21:01:00,79.3,73.0,30.01,NE,50,3.0,9.0,81,0.00,,,0.00,meteohub,2013-08-24 01:01:00,
2013-08-23 21:06:00,79.3,72.7,30.01,ENE,64,1.0,10.0,80,0.00,,,0.00,meteohub,2013-08-24 01:06:00,
2013-08-23 21:12:00,79.2,72.5,30.02,ENE,61,1.0,10.0,80,0.00,,,0.00,meteohub,2013-08-24 01:12:00,
2013-08-23 21:17:00,79.0,72.3,30.02,ENE,61,0.0,10.0,80,0.00,,,0.00,meteohub,2013-08-24 01:17:00,
2013-08-23 21:22:00,78.8,72.1,30.02,ENE,58,1.0,10.0,80,0.00,,,0.00,meteohub,2013-08-24 01:22:00,
2013-08-23 21:27:00,78.6,72.3,30.02,ENE,58,4.0,10.0,81,0.00,,,0.00,meteohub,2013-08-24 01:27:00,
2013-08-23 21:32:00,78.4,72.1,30.02,ENE,58,1.0,7.0,81,0.00,,,0.00,meteohub,2013-08-24 01:32:00,
2013-08-23 21:37:00,78.4,72.5,30.02,ENE,58,1.0,5.0,82,0.00,,,0.00,meteohub,2013-08-24 01:37:00,
2013-08-23 21:42:00,78.3,72.3,30.02,ENE,58,0.0,4.0,82,0.00,,,0.00,meteohub,2013-08-24 01:42:00,
2013-08-23 21:47:00,78.1,72.1,30.02,ENE,58,0.0,4.0,82,0.00,,,0.00,meteohub,2013-08-24 01:47:00,
2013-08-23 21:52:00,78.1,72.1,30.03,ENE,59,0.0,7.0,82,0.00,,,0.00,meteohub,2013-08-24 01:52:00,
2013-08-23 21:57:00,78.1,72.1,30.03,ENE,59,1.0,7.0,82,0.00,,,0.00,meteohub,2013-08-24 01:57:00,
2013-08-23 22:02:00,78.1,72.1,30.03,ENE,58,2.0,9.0,82,0.00,,,0.00,meteohub,2013-08-24 02:02:00,
2013-08-23 22:07:00,78.1,72.1,30.03,ENE,57,2.0,9.0,82,0.00,,,0.00,meteohub,2013-08-24 02:07:00,
2013-08-23 22:12:00,78.1,72.1,30.02,ENE,60,1.0,9.0,82,0.00,,,0.00,meteohub,2013-08-24 02:12:00,
2013-08-23 22:17:00,78.1,72.1,30.03,ENE,64,0.0,8.0,82,0.00,,,0.00,meteohub,2013-08-24 02:17:00,
2013-08-23 22:22:00,78.1,71.8,30.03,ENE,67,4.0,9.0,81,0.00,,,0.00,meteohub,2013-08-24 02:22:00,
2013-08-23 22:27:00,78.1,72.1,30.02,ENE,67,1.0,10.0,82,0.00,,,0.00,meteohub,2013-08-24 02:27:00,
2013-08-23 22:32:00,78.1,72.1,30.02,ENE,65,3.0,10.0,82,0.00,,,0.00,meteohub,2013-08-24 02:32:00,
2013-08-23 22:37:00,78.1,72.1,30.02,ENE,65,3.0,9.0,82,0.00,,,0.00,meteohub,2013-08-24 02:37:00,
2013-08-23 22:42:00,78.1,72.1,30.02,ENE,65,3.0,8.0,82,0.00,,,0.00,meteohub,2013-08-24 02:42:00,
2013-08-23 22:47:00,78.1,72.5,30.02,ENE,66,0.0,8.0,83,0.00,,,0.00,meteohub,2013-08-24 02:47:00,
2013-08-23 22:52:00,78.1,72.5,30.02,ENE,68,0.0,7.0,83,0.00,,,0.00,meteohub,2013-08-24 02:52:00,
2013-08-23 22:57:00,78.3,72.7,30.01,East,80,1.0,10.0,83,0.00,,,0.00,meteohub,2013-08-24 02:57:00,
2013-08-23 23:02:00,78.4,73.2,30.02,ENE,77,1.0,10.0,84,0.00,,,0.00,meteohub,2013-08-24 03:02:00,
2013-08-23 23:07:00,78.4,72.9,30.02,ENE,77,0.0,10.0,83,0.00,,,0.00,meteohub,2013-08-24 03:07:00,
2013-08-23 23:12:00,78.4,72.9,30.02,ENE,76,2.0,7.0,83,0.00,,,0.00,meteohub,2013-08-24 03:12:00,
2013-08-23 23:17:00,78.4,72.9,30.02,ENE,76,0.0,4.0,83,0.00,,,0.00,meteohub,2013-08-24 03:17:00,
2013-08-23 23:22:00,78.4,72.9,30.02,ENE,76,0.0,5.0,83,0.00,,,0.00,meteohub,2013-08-24 03:22:00,
2013-08-23 23:27:00,78.3,72.7,30.02,ENE,76,1.0,5.0,83,0.00,,,0.00,meteohub,2013-08-24 03:27:00,
2013-08-23 23:32:00,78.3,73.0,30.02,ENE,76,2.0,5.0,84,0.00,,,0.00,meteohub,2013-08-24 03:32:00,
2013-08-23 23:37:00,78.3,73.0,30.02,ENE,76,0.0,5.0,84,0.00,,,0.00,meteohub,2013-08-24 03:37:00,
2013-08-23 23:42:00,78.3,73.0,30.02,ENE,76,0.0,4.0,84,0.00,,,0.00,meteohub,2013-08-24 03:42:00,
2013-08-23 23:47:00,78.1,72.9,30.03,ENE,76,0.0,3.0,84,0.00,,,0.00,meteohub,2013-08-24 03:47:00,
2013-08-23 23:52:00,78.1,72.9,30.03,ENE,76,2.0,3.0,84,0.00,,,0.00,meteohub,2013-08-24 03:52:00,
2013-08-23 23:57:00,78.1,72.9,30.02,ENE,76,3.0,4.0,84,0.00,,,0.00,meteohub,2013-08-24 03:57:00,